sensor_id;sensor_type;location;lat;lon;timestamp;P1;durP1;ratioP1;P2;durP2;ratioP2
56242;SDS011;42155;53.096;23.226;2023-05-19T00:01:54;4.70;;;2.95;;
56242;SDS011;42155;53.096;23.226;2023-05-19T00:03:56;4.95;;;2.72;;
56242;SDS011;42155;53.096;23.226;2023-05-19T00:05:57;5.20;;;2.78;;
56242;SDS011;42155;53.096;23.226;2023-05-19T00:08:00;6.60;;;3.03;;
56242;SDS011;42155;53.096;23.226;2023-05-19T00:10:03;4.57;;;2.83;;
56242;SDS011;42155;53.096;23.226;2023-05-19T00:12:04;7.72;;;2.95;;
56242;SDS011;42155;53.096;23.226;2023-05-19T00:14:06;4.03;;;2.83;;
56242;SDS011;42155;53.096;23.226;2023-05-19T00:16:07;4.68;;;2.90;;
56242;SDS011;42155;53.096;23.226;2023-05-19T00:18:08;3.75;;;2.58;;
56242;SDS011;42155;53.096;23.226;2023-05-19T00:20:09;7.63;;;3.05;;
56242;SDS011;42155;53.096;23.226;2023-05-19T00:22:10;7.20;;;3.00;;
56242;SDS011;42155;53.096;23.226;2023-05-19T00:24:10;4.68;;;2.60;;
56242;SDS011;42155;53.096;23.226;2023-05-19T00:26:10;6.13;;;2.72;;
56242;SDS011;42155;53.096;23.226;2023-05-19T00:28:11;5.35;;;2.58;;
56242;SDS011;42155;53.096;23.226;2023-05-19T00:30:11;4.72;;;2.35;;
56242;SDS011;42155;53.096;23.226;2023-05-19T00:32:12;6.13;;;2.67;;
56242;SDS011;42155;53.096;23.226;2023-05-19T00:34:12;4.57;;;2.30;;
56242;SDS011;42155;53.096;23.226;2023-05-19T00:36:13;4.63;;;2.38;;
56242;SDS011;42155;53.096;23.226;2023-05-19T00:38:13;4.82;;;2.22;;
56242;SDS011;42155;53.096;23.226;2023-05-19T00:40:13;7.38;;;2.25;;
56242;SDS011;42155;53.096;23.226;2023-05-19T00:42:14;5.63;;;2.33;;
56242;SDS011;42155;53.096;23.226;2023-05-19T00:44:15;3.70;;;2.20;;
56242;SDS011;42155;53.096;23.226;2023-05-19T00:46:15;3.17;;;2.10;;
56242;SDS011;42155;53.096;23.226;2023-05-19T00:48:16;3.97;;;2.20;;
56242;SDS011;42155;53.096;23.226;2023-05-19T00:50:16;8.52;;;2.50;;
56242;SDS011;42155;53.096;23.226;2023-05-19T00:52:16;5.60;;;2.33;;
56242;SDS011;42155;53.096;23.226;2023-05-19T00:54:17;4.32;;;2.40;;
56242;SDS011;42155;53.096;23.226;2023-05-19T00:56:19;3.60;;;2.20;;
56242;SDS011;42155;53.096;23.226;2023-05-19T00:58:20;6.25;;;2.60;;
56242;SDS011;42155;53.096;23.226;2023-05-19T01:00:20;9.57;;;2.80;;
56242;SDS011;42155;53.096;23.226;2023-05-19T01:02:20;4.68;;;2.25;;
56242;SDS011;42155;53.096;23.226;2023-05-19T01:04:21;4.07;;;2.25;;
56242;SDS011;42155;53.096;23.226;2023-05-19T01:06:21;4.68;;;2.40;;
56242;SDS011;42155;53.096;23.226;2023-05-19T01:08:22;4.80;;;2.00;;
56242;SDS011;42155;53.096;23.226;2023-05-19T01:10:22;5.13;;;2.10;;
56242;SDS011;42155;53.096;23.226;2023-05-19T01:12:23;6.93;;;2.17;;
56242;SDS011;42155;53.096;23.226;2023-05-19T01:14:24;4.28;;;2.20;;
56242;SDS011;42155;53.096;23.226;2023-05-19T01:16:35;9.50;;;2.47;;
56242;SDS011;42155;53.096;23.226;2023-05-19T01:21:48;4.55;;;2.25;;
56242;SDS011;42155;53.096;23.226;2023-05-19T01:29:07;3.90;;;1.90;;
56242;SDS011;42155;53.096;23.226;2023-05-19T01:31:30;4.32;;;2.38;;
56242;SDS011;42155;53.096;23.226;2023-05-19T01:33:30;4.40;;;1.88;;
56242;SDS011;42155;53.096;23.226;2023-05-19T01:35:33;2.58;;;1.70;;
56242;SDS011;42155;53.096;23.226;2023-05-19T01:37:36;2.92;;;2.03;;
56242;SDS011;42155;53.096;23.226;2023-05-19T01:39:38;5.50;;;2.05;;
56242;SDS011;42155;53.096;23.226;2023-05-19T01:41:40;3.08;;;2.13;;
56242;SDS011;42155;53.096;23.226;2023-05-19T01:43:40;4.20;;;1.77;;
56242;SDS011;42155;53.096;23.226;2023-05-19T01:45:41;3.63;;;1.60;;
56242;SDS011;42155;53.096;23.226;2023-05-19T01:47:45;5.30;;;2.20;;
56242;SDS011;42155;53.096;23.226;2023-05-19T01:49:47;4.88;;;2.10;;
56242;SDS011;42155;53.096;23.226;2023-05-19T01:51:47;4.07;;;1.63;;
56242;SDS011;42155;53.096;23.226;2023-05-19T01:53:48;2.60;;;1.80;;
56242;SDS011;42155;53.096;23.226;2023-05-19T01:55:49;3.65;;;1.80;;
56242;SDS011;42155;53.096;23.226;2023-05-19T02:02:33;5.30;;;1.63;;
56242;SDS011;42155;53.096;23.226;2023-05-19T02:04:56;4.47;;;2.00;;
56242;SDS011;42155;53.096;23.226;2023-05-19T02:09:08;3.88;;;1.70;;
56242;SDS011;42155;53.096;23.226;2023-05-19T02:11:21;3.63;;;1.45;;
56242;SDS011;42155;53.096;23.226;2023-05-19T02:13:35;2.78;;;1.30;;
56242;SDS011;42155;53.096;23.226;2023-05-19T02:15:39;3.03;;;1.80;;
56242;SDS011;42155;53.096;23.226;2023-05-19T02:17:42;2.63;;;1.67;;
56242;SDS011;42155;53.096;23.226;2023-05-19T02:19:44;3.70;;;1.45;;
56242;SDS011;42155;53.096;23.226;2023-05-19T02:21:45;4.43;;;1.70;;
56242;SDS011;42155;53.096;23.226;2023-05-19T02:23:45;2.78;;;1.40;;
56242;SDS011;42155;53.096;23.226;2023-05-19T02:25:46;6.05;;;2.10;;
56242;SDS011;42155;53.096;23.226;2023-05-19T02:27:47;4.47;;;1.95;;
56242;SDS011;42155;53.096;23.226;2023-05-19T02:29:47;4.68;;;1.65;;
56242;SDS011;42155;53.096;23.226;2023-05-19T02:31:48;6.72;;;1.85;;
56242;SDS011;42155;53.096;23.226;2023-05-19T02:33:48;9.27;;;1.70;;
56242;SDS011;42155;53.096;23.226;2023-05-19T02:35:49;2.90;;;1.73;;
56242;SDS011;42155;53.096;23.226;2023-05-19T02:37:49;4.88;;;1.90;;
56242;SDS011;42155;53.096;23.226;2023-05-19T02:39:49;3.33;;;1.55;;
56242;SDS011;42155;53.096;23.226;2023-05-19T02:41:50;3.17;;;1.70;;
56242;SDS011;42155;53.096;23.226;2023-05-19T02:43:50;2.88;;;1.30;;
56242;SDS011;42155;53.096;23.226;2023-05-19T02:45:50;3.92;;;1.90;;
56242;SDS011;42155;53.096;23.226;2023-05-19T02:47:51;4.72;;;2.50;;
56242;SDS011;42155;53.096;23.226;2023-05-19T02:49:51;6.90;;;1.90;;
56242;SDS011;42155;53.096;23.226;2023-05-19T02:51:52;4.45;;;1.98;;
56242;SDS011;42155;53.096;23.226;2023-05-19T02:53:52;5.05;;;1.90;;
56242;SDS011;42155;53.096;23.226;2023-05-19T02:55:52;5.50;;;2.22;;
56242;SDS011;42155;53.096;23.226;2023-05-19T02:57:52;3.28;;;1.80;;
56242;SDS011;42155;53.096;23.226;2023-05-19T02:59:53;5.88;;;2.10;;
56242;SDS011;42155;53.096;23.226;2023-05-19T03:01:54;3.88;;;2.15;;
56242;SDS011;42155;53.096;23.226;2023-05-19T03:03:56;3.53;;;1.90;;
56242;SDS011;42155;53.096;23.226;2023-05-19T03:05:56;4.15;;;2.22;;
56242;SDS011;42155;53.096;23.226;2023-05-19T03:07:56;7.22;;;2.20;;
56242;SDS011;42155;53.096;23.226;2023-05-19T03:09:57;4.93;;;2.40;;
56242;SDS011;42155;53.096;23.226;2023-05-19T03:11:57;4.57;;;2.25;;
56242;SDS011;42155;53.096;23.226;2023-05-19T03:13:57;5.70;;;2.05;;
56242;SDS011;42155;53.096;23.226;2023-05-19T03:15:58;3.45;;;2.40;;
56242;SDS011;42155;53.096;23.226;2023-05-19T03:17:58;5.85;;;2.25;;
56242;SDS011;42155;53.096;23.226;2023-05-19T03:19:59;8.18;;;2.00;;
56242;SDS011;42155;53.096;23.226;2023-05-19T03:21:59;3.15;;;2.10;;
56242;SDS011;42155;53.096;23.226;2023-05-19T03:24:00;3.70;;;2.03;;
56242;SDS011;42155;53.096;23.226;2023-05-19T03:26:00;4.63;;;2.00;;
56242;SDS011;42155;53.096;23.226;2023-05-19T03:28:01;5.43;;;2.25;;
56242;SDS011;42155;53.096;23.226;2023-05-19T03:30:01;4.13;;;2.20;;
56242;SDS011;42155;53.096;23.226;2023-05-19T03:32:01;6.10;;;2.20;;
56242;SDS011;42155;53.096;23.226;2023-05-19T03:34:02;5.88;;;2.17;;
56242;SDS011;42155;53.096;23.226;2023-05-19T03:36:02;4.35;;;2.63;;
56242;SDS011;42155;53.096;23.226;2023-05-19T03:38:03;4.95;;;1.95;;
56242;SDS011;42155;53.096;23.226;2023-05-19T03:40:03;7.78;;;2.00;;
56242;SDS011;42155;53.096;23.226;2023-05-19T03:42:04;3.63;;;1.90;;
56242;SDS011;42155;53.096;23.226;2023-05-19T03:44:05;2.70;;;1.77;;
56242;SDS011;42155;53.096;23.226;2023-05-19T03:46:05;4.57;;;1.70;;
56242;SDS011;42155;53.096;23.226;2023-05-19T03:48:05;2.75;;;1.75;;
56242;SDS011;42155;53.096;23.226;2023-05-19T03:50:06;4.85;;;1.70;;
56242;SDS011;42155;53.096;23.226;2023-05-19T03:52:06;4.50;;;1.48;;
56242;SDS011;42155;53.096;23.226;2023-05-19T03:54:07;2.28;;;1.45;;
56242;SDS011;42155;53.096;23.226;2023-05-19T03:56:08;3.53;;;1.50;;
56242;SDS011;42155;53.096;23.226;2023-05-19T03:58:08;4.50;;;1.80;;
56242;SDS011;42155;53.096;23.226;2023-05-19T04:00:09;3.33;;;1.40;;
56242;SDS011;42155;53.096;23.226;2023-05-19T04:02:10;3.63;;;1.88;;
56242;SDS011;42155;53.096;23.226;2023-05-19T04:04:10;3.58;;;1.35;;
56242;SDS011;42155;53.096;23.226;2023-05-19T04:06:10;4.28;;;1.80;;
56242;SDS011;42155;53.096;23.226;2023-05-19T04:08:11;3.08;;;1.63;;
56242;SDS011;42155;53.096;23.226;2023-05-19T04:10:11;3.90;;;1.65;;
56242;SDS011;42155;53.096;23.226;2023-05-19T04:12:11;2.45;;;1.55;;
56242;SDS011;42155;53.096;23.226;2023-05-19T04:14:12;5.93;;;1.90;;
56242;SDS011;42155;53.096;23.226;2023-05-19T04:16:12;2.95;;;1.45;;
56242;SDS011;42155;53.096;23.226;2023-05-19T04:18:13;3.42;;;1.45;;
56242;SDS011;42155;53.096;23.226;2023-05-19T04:20:13;2.78;;;1.70;;
56242;SDS011;42155;53.096;23.226;2023-05-19T04:22:13;2.90;;;1.48;;
56242;SDS011;42155;53.096;23.226;2023-05-19T04:24:14;3.00;;;1.80;;
56242;SDS011;42155;53.096;23.226;2023-05-19T04:26:14;4.28;;;1.33;;
56242;SDS011;42155;53.096;23.226;2023-05-19T04:28:15;2.67;;;1.40;;
56242;SDS011;42155;53.096;23.226;2023-05-19T04:30:15;3.28;;;1.50;;
56242;SDS011;42155;53.096;23.226;2023-05-19T04:32:16;3.22;;;1.65;;
56242;SDS011;42155;53.096;23.226;2023-05-19T04:34:16;5.32;;;1.55;;
56242;SDS011;42155;53.096;23.226;2023-05-19T04:36:16;7.13;;;1.60;;
56242;SDS011;42155;53.096;23.226;2023-05-19T04:38:16;3.70;;;1.60;;
56242;SDS011;42155;53.096;23.226;2023-05-19T04:40:17;4.30;;;1.60;;
56242;SDS011;42155;53.096;23.226;2023-05-19T04:42:17;4.95;;;1.50;;
56242;SDS011;42155;53.096;23.226;2023-05-19T04:44:17;2.78;;;1.52;;
56242;SDS011;42155;53.096;23.226;2023-05-19T04:46:18;2.15;;;1.45;;
56242;SDS011;42155;53.096;23.226;2023-05-19T04:48:19;3.85;;;1.40;;
56242;SDS011;42155;53.096;23.226;2023-05-19T04:50:19;5.25;;;1.50;;
56242;SDS011;42155;53.096;23.226;2023-05-19T04:52:20;7.10;;;1.58;;
56242;SDS011;42155;53.096;23.226;2023-05-19T04:54:20;2.65;;;1.30;;
56242;SDS011;42155;53.096;23.226;2023-05-19T04:56:20;2.97;;;1.27;;
56242;SDS011;42155;53.096;23.226;2023-05-19T04:58:21;3.72;;;1.58;;
56242;SDS011;42155;53.096;23.226;2023-05-19T05:00:22;10.18;;;1.63;;
56242;SDS011;42155;53.096;23.226;2023-05-19T05:02:22;2.05;;;1.10;;
56242;SDS011;42155;53.096;23.226;2023-05-19T05:04:22;2.40;;;1.58;;
56242;SDS011;42155;53.096;23.226;2023-05-19T05:06:23;1.80;;;1.30;;
56242;SDS011;42155;53.096;23.226;2023-05-19T05:08:23;2.55;;;1.67;;
56242;SDS011;42155;53.096;23.226;2023-05-19T05:10:24;2.25;;;1.20;;
56242;SDS011;42155;53.096;23.226;2023-05-19T05:12:24;2.53;;;1.40;;
56242;SDS011;42155;53.096;23.226;2023-05-19T05:14:25;2.85;;;1.33;;
56242;SDS011;42155;53.096;23.226;2023-05-19T05:16:26;4.00;;;1.63;;
56242;SDS011;42155;53.096;23.226;2023-05-19T05:18:26;3.50;;;1.48;;
56242;SDS011;42155;53.096;23.226;2023-05-19T05:20:27;3.40;;;1.40;;
56242;SDS011;42155;53.096;23.226;2023-05-19T05:22:27;2.03;;;1.20;;
56242;SDS011;42155;53.096;23.226;2023-05-19T05:24:28;3.40;;;1.50;;
56242;SDS011;42155;53.096;23.226;2023-05-19T05:26:29;2.53;;;1.38;;
56242;SDS011;42155;53.096;23.226;2023-05-19T05:28:32;2.33;;;1.30;;
56242;SDS011;42155;53.096;23.226;2023-05-19T05:30:32;4.78;;;1.50;;
56242;SDS011;42155;53.096;23.226;2023-05-19T05:32:33;5.28;;;1.45;;
56242;SDS011;42155;53.096;23.226;2023-05-19T05:34:33;3.38;;;1.65;;
56242;SDS011;42155;53.096;23.226;2023-05-19T05:36:34;2.38;;;1.35;;
56242;SDS011;42155;53.096;23.226;2023-05-19T05:38:34;2.15;;;1.40;;
56242;SDS011;42155;53.096;23.226;2023-05-19T05:40:34;3.15;;;1.38;;
56242;SDS011;42155;53.096;23.226;2023-05-19T05:42:35;1.88;;;1.30;;
56242;SDS011;42155;53.096;23.226;2023-05-19T05:44:35;2.40;;;1.40;;
56242;SDS011;42155;53.096;23.226;2023-05-19T05:46:35;5.60;;;2.03;;
56242;SDS011;42155;53.096;23.226;2023-05-19T05:48:36;3.40;;;1.70;;
56242;SDS011;42155;53.096;23.226;2023-05-19T05:50:36;2.83;;;1.30;;
56242;SDS011;42155;53.096;23.226;2023-05-19T05:52:37;3.45;;;1.75;;
56242;SDS011;42155;53.096;23.226;2023-05-19T05:54:40;3.97;;;1.63;;
56242;SDS011;42155;53.096;23.226;2023-05-19T05:56:40;5.45;;;1.38;;
56242;SDS011;42155;53.096;23.226;2023-05-19T05:58:41;5.07;;;1.70;;
56242;SDS011;42155;53.096;23.226;2023-05-19T06:00:42;4.97;;;1.30;;
56242;SDS011;42155;53.096;23.226;2023-05-19T06:02:43;3.78;;;1.90;;
56242;SDS011;42155;53.096;23.226;2023-05-19T06:04:44;3.92;;;1.70;;
56242;SDS011;42155;53.096;23.226;2023-05-19T06:06:45;6.30;;;2.35;;
56242;SDS011;42155;53.096;23.226;2023-05-19T06:08:45;7.32;;;2.00;;
56242;SDS011;42155;53.096;23.226;2023-05-19T06:10:46;4.43;;;1.55;;
56242;SDS011;42155;53.096;23.226;2023-05-19T06:12:46;3.92;;;1.80;;
56242;SDS011;42155;53.096;23.226;2023-05-19T06:14:46;6.00;;;1.80;;
56242;SDS011;42155;53.096;23.226;2023-05-19T06:16:46;2.53;;;1.80;;
56242;SDS011;42155;53.096;23.226;2023-05-19T06:18:47;2.35;;;1.23;;
56242;SDS011;42155;53.096;23.226;2023-05-19T06:20:47;2.78;;;1.30;;
56242;SDS011;42155;53.096;23.226;2023-05-19T06:22:47;6.90;;;1.70;;
56242;SDS011;42155;53.096;23.226;2023-05-19T06:24:48;3.13;;;1.40;;
56242;SDS011;42155;53.096;23.226;2023-05-19T06:26:48;2.58;;;1.27;;
56242;SDS011;42155;53.096;23.226;2023-05-19T06:28:48;5.72;;;1.58;;
56242;SDS011;42155;53.096;23.226;2023-05-19T06:30:49;2.22;;;1.30;;
56242;SDS011;42155;53.096;23.226;2023-05-19T06:32:49;3.78;;;1.50;;
56242;SDS011;42155;53.096;23.226;2023-05-19T06:34:49;3.15;;;1.60;;
56242;SDS011;42155;53.096;23.226;2023-05-19T06:36:50;4.75;;;1.45;;
56242;SDS011;42155;53.096;23.226;2023-05-19T06:38:50;5.28;;;1.42;;
56242;SDS011;42155;53.096;23.226;2023-05-19T06:40:50;2.33;;;1.33;;
56242;SDS011;42155;53.096;23.226;2023-05-19T06:42:51;1.77;;;1.40;;
56242;SDS011;42155;53.096;23.226;2023-05-19T06:44:51;3.50;;;1.45;;
56242;SDS011;42155;53.096;23.226;2023-05-19T06:46:52;3.22;;;1.33;;
56242;SDS011;42155;53.096;23.226;2023-05-19T06:48:52;3.95;;;1.30;;
56242;SDS011;42155;53.096;23.226;2023-05-19T06:50:52;2.08;;;1.10;;
56242;SDS011;42155;53.096;23.226;2023-05-19T06:52:53;3.10;;;1.30;;
56242;SDS011;42155;53.096;23.226;2023-05-19T06:54:53;3.85;;;1.42;;
56242;SDS011;42155;53.096;23.226;2023-05-19T06:56:53;2.78;;;1.20;;
56242;SDS011;42155;53.096;23.226;2023-05-19T06:58:54;2.85;;;1.13;;
56242;SDS011;42155;53.096;23.226;2023-05-19T07:00:54;2.08;;;1.13;;
56242;SDS011;42155;53.096;23.226;2023-05-19T07:02:54;3.08;;;1.17;;
56242;SDS011;42155;53.096;23.226;2023-05-19T07:04:55;1.77;;;1.17;;
56242;SDS011;42155;53.096;23.226;2023-05-19T07:06:55;2.55;;;1.33;;
56242;SDS011;42155;53.096;23.226;2023-05-19T07:08:55;3.63;;;1.73;;
56242;SDS011;42155;53.096;23.226;2023-05-19T07:10:56;3.88;;;1.67;;
56242;SDS011;42155;53.096;23.226;2023-05-19T07:12:56;2.30;;;1.40;;
56242;SDS011;42155;53.096;23.226;2023-05-19T07:14:56;2.92;;;1.30;;
56242;SDS011;42155;53.096;23.226;2023-05-19T07:16:57;3.25;;;1.52;;
56242;SDS011;42155;53.096;23.226;2023-05-19T07:18:57;3.95;;;1.50;;
56242;SDS011;42155;53.096;23.226;2023-05-19T07:20:57;4.57;;;1.45;;
56242;SDS011;42155;53.096;23.226;2023-05-19T07:22:58;2.25;;;1.20;;
56242;SDS011;42155;53.096;23.226;2023-05-19T07:24:58;2.38;;;1.30;;
56242;SDS011;42155;53.096;23.226;2023-05-19T07:26:58;1.85;;;1.20;;
56242;SDS011;42155;53.096;23.226;2023-05-19T07:28:59;3.15;;;1.40;;
56242;SDS011;42155;53.096;23.226;2023-05-19T07:30:59;2.25;;;1.20;;
56242;SDS011;42155;53.096;23.226;2023-05-19T07:32:59;3.10;;;1.20;;
56242;SDS011;42155;53.096;23.226;2023-05-19T07:35:00;6.22;;;1.30;;
56242;SDS011;42155;53.096;23.226;2023-05-19T07:37:00;2.72;;;1.30;;
56242;SDS011;42155;53.096;23.226;2023-05-19T07:39:00;3.03;;;1.38;;
56242;SDS011;42155;53.096;23.226;2023-05-19T07:41:01;2.85;;;1.40;;
56242;SDS011;42155;53.096;23.226;2023-05-19T07:43:02;2.65;;;1.20;;
56242;SDS011;42155;53.096;23.226;2023-05-19T07:45:02;4.57;;;1.45;;
56242;SDS011;42155;53.096;23.226;2023-05-19T07:47:03;3.05;;;1.40;;
56242;SDS011;42155;53.096;23.226;2023-05-19T07:49:03;6.82;;;1.17;;
56242;SDS011;42155;53.096;23.226;2023-05-19T07:51:04;3.47;;;1.30;;
56242;SDS011;42155;53.096;23.226;2023-05-19T07:53:04;3.63;;;1.10;;
56242;SDS011;42155;53.096;23.226;2023-05-19T07:55:04;5.68;;;1.48;;
56242;SDS011;42155;53.096;23.226;2023-05-19T07:57:05;3.47;;;1.33;;
56242;SDS011;42155;53.096;23.226;2023-05-19T07:59:05;3.47;;;1.20;;
56242;SDS011;42155;53.096;23.226;2023-05-19T08:01:05;4.68;;;1.33;;
56242;SDS011;42155;53.096;23.226;2023-05-19T08:03:06;2.75;;;1.20;;
56242;SDS011;42155;53.096;23.226;2023-05-19T08:05:06;3.55;;;1.25;;
56242;SDS011;42155;53.096;23.226;2023-05-19T08:07:07;3.03;;;1.17;;
56242;SDS011;42155;53.096;23.226;2023-05-19T08:09:07;3.25;;;1.35;;
56242;SDS011;42155;53.096;23.226;2023-05-19T08:11:08;2.22;;;1.05;;
56242;SDS011;42155;53.096;23.226;2023-05-19T08:13:08;3.67;;;1.25;;
56242;SDS011;42155;53.096;23.226;2023-05-19T08:15:08;2.60;;;1.30;;
56242;SDS011;42155;53.096;23.226;2023-05-19T08:17:09;8.00;;;1.50;;
56242;SDS011;42155;53.096;23.226;2023-05-19T08:19:09;4.57;;;1.25;;
56242;SDS011;42155;53.096;23.226;2023-05-19T08:21:10;2.45;;;1.08;;
56242;SDS011;42155;53.096;23.226;2023-05-19T08:23:10;4.22;;;1.30;;
56242;SDS011;42155;53.096;23.226;2023-05-19T08:25:10;3.22;;;1.17;;
56242;SDS011;42155;53.096;23.226;2023-05-19T08:27:11;2.28;;;1.25;;
56242;SDS011;42155;53.096;23.226;2023-05-19T08:29:11;1.73;;;1.00;;
56242;SDS011;42155;53.096;23.226;2023-05-19T08:31:11;1.95;;;1.15;;
56242;SDS011;42155;53.096;23.226;2023-05-19T08:33:12;5.60;;;1.58;;
56242;SDS011;42155;53.096;23.226;2023-05-19T08:35:12;2.75;;;0.98;;
56242;SDS011;42155;53.096;23.226;2023-05-19T08:37:12;2.80;;;1.00;;
56242;SDS011;42155;53.096;23.226;2023-05-19T08:39:13;4.50;;;1.10;;
56242;SDS011;42155;53.096;23.226;2023-05-19T08:41:13;5.47;;;1.00;;
56242;SDS011;42155;53.096;23.226;2023-05-19T08:43:13;2.53;;;1.17;;
56242;SDS011;42155;53.096;23.226;2023-05-19T08:45:14;2.50;;;1.00;;
56242;SDS011;42155;53.096;23.226;2023-05-19T08:47:14;2.60;;;1.20;;
56242;SDS011;42155;53.096;23.226;2023-05-19T08:49:16;2.67;;;1.10;;
56242;SDS011;42155;53.096;23.226;2023-05-19T08:53:56;4.70;;;1.25;;
56242;SDS011;42155;53.096;23.226;2023-05-19T08:58:10;2.38;;;1.00;;
56242;SDS011;42155;53.096;23.226;2023-05-19T09:00:11;3.05;;;1.17;;
56242;SDS011;42155;53.096;23.226;2023-05-19T09:02:13;2.22;;;1.00;;
56242;SDS011;42155;53.096;23.226;2023-05-19T09:04:14;1.88;;;1.10;;
56242;SDS011;42155;53.096;23.226;2023-05-19T09:06:15;2.47;;;1.00;;
56242;SDS011;42155;53.096;23.226;2023-05-19T09:08:16;3.28;;;1.20;;
56242;SDS011;42155;53.096;23.226;2023-05-19T09:10:16;2.40;;;1.10;;
56242;SDS011;42155;53.096;23.226;2023-05-19T09:12:17;3.78;;;1.38;;
56242;SDS011;42155;53.096;23.226;2023-05-19T09:14:17;6.07;;;1.30;;
56242;SDS011;42155;53.096;23.226;2023-05-19T09:16:17;2.88;;;1.10;;
56242;SDS011;42155;53.096;23.226;2023-05-19T09:18:18;4.47;;;1.30;;
56242;SDS011;42155;53.096;23.226;2023-05-19T09:20:18;4.68;;;1.00;;
56242;SDS011;42155;53.096;23.226;2023-05-19T09:22:18;3.45;;;1.05;;
56242;SDS011;42155;53.096;23.226;2023-05-19T09:24:19;2.40;;;1.00;;
56242;SDS011;42155;53.096;23.226;2023-05-19T09:26:20;4.13;;;1.25;;
56242;SDS011;42155;53.096;23.226;2023-05-19T09:28:30;1.88;;;0.95;;
56242;SDS011;42155;53.096;23.226;2023-05-19T09:30:31;4.20;;;1.27;;
56242;SDS011;42155;53.096;23.226;2023-05-19T09:32:32;2.75;;;1.10;;
56242;SDS011;42155;53.096;23.226;2023-05-19T09:34:34;5.30;;;1.50;;
56242;SDS011;42155;53.096;23.226;2023-05-19T09:36:40;2.58;;;1.00;;
56242;SDS011;42155;53.096;23.226;2023-05-19T09:38:41;1.80;;;0.95;;
56242;SDS011;42155;53.096;23.226;2023-05-19T09:40:41;2.58;;;1.50;;
56242;SDS011;42155;53.096;23.226;2023-05-19T09:42:42;2.58;;;1.02;;
56242;SDS011;42155;53.096;23.226;2023-05-19T09:44:42;3.28;;;1.20;;
56242;SDS011;42155;53.096;23.226;2023-05-19T09:46:46;7.88;;;1.38;;
56242;SDS011;42155;53.096;23.226;2023-05-19T09:48:47;2.60;;;1.17;;
56242;SDS011;42155;53.096;23.226;2023-05-19T09:50:47;3.13;;;1.10;;
56242;SDS011;42155;53.096;23.226;2023-05-19T09:52:48;3.90;;;1.35;;
56242;SDS011;42155;53.096;23.226;2023-05-19T09:54:48;6.65;;;1.20;;
56242;SDS011;42155;53.096;23.226;2023-05-19T09:56:56;3.33;;;1.38;;
56242;SDS011;42155;53.096;23.226;2023-05-19T09:58:56;2.25;;;0.90;;
56242;SDS011;42155;53.096;23.226;2023-05-19T10:00:56;2.13;;;1.13;;
56242;SDS011;42155;53.096;23.226;2023-05-19T10:02:58;2.28;;;1.05;;
56242;SDS011;42155;53.096;23.226;2023-05-19T10:04:58;3.85;;;1.35;;
56242;SDS011;42155;53.096;23.226;2023-05-19T10:06:59;2.10;;;1.20;;
56242;SDS011;42155;53.096;23.226;2023-05-19T10:09:02;7.35;;;1.45;;
56242;SDS011;42155;53.096;23.226;2023-05-19T10:11:04;4.65;;;1.27;;
56242;SDS011;42155;53.096;23.226;2023-05-19T10:13:05;3.05;;;1.30;;
56242;SDS011;42155;53.096;23.226;2023-05-19T10:15:07;3.90;;;1.20;;
56242;SDS011;42155;53.096;23.226;2023-05-19T10:17:08;1.85;;;1.15;;
56242;SDS011;42155;53.096;23.226;2023-05-19T10:19:11;2.95;;;1.13;;
56242;SDS011;42155;53.096;23.226;2023-05-19T10:21:12;3.42;;;1.10;;
56242;SDS011;42155;53.096;23.226;2023-05-19T10:23:13;3.00;;;0.98;;
56242;SDS011;42155;53.096;23.226;2023-05-19T10:25:14;4.25;;;1.42;;
56242;SDS011;42155;53.096;23.226;2023-05-19T10:27:14;2.80;;;1.17;;
56242;SDS011;42155;53.096;23.226;2023-05-19T10:29:18;3.90;;;1.50;;
56242;SDS011;42155;53.096;23.226;2023-05-19T10:31:24;2.47;;;1.30;;
56242;SDS011;42155;53.096;23.226;2023-05-19T10:33:28;2.88;;;1.15;;
56242;SDS011;42155;53.096;23.226;2023-05-19T10:40:15;3.42;;;1.20;;
56242;SDS011;42155;53.096;23.226;2023-05-19T10:42:52;4.15;;;1.20;;
56242;SDS011;42155;53.096;23.226;2023-05-19T10:45:16;2.65;;;1.10;;
56242;SDS011;42155;53.096;23.226;2023-05-19T10:47:25;3.33;;;1.10;;
56242;SDS011;42155;53.096;23.226;2023-05-19T10:49:26;1.70;;;1.20;;
56242;SDS011;42155;53.096;23.226;2023-05-19T10:51:29;3.78;;;1.48;;
56242;SDS011;42155;53.096;23.226;2023-05-19T10:53:31;3.60;;;1.35;;
56242;SDS011;42155;53.096;23.226;2023-05-19T10:57:52;6.85;;;1.30;;
56242;SDS011;42155;53.096;23.226;2023-05-19T10:59:54;5.70;;;1.13;;
56242;SDS011;42155;53.096;23.226;2023-05-19T11:01:55;4.20;;;1.20;;
56242;SDS011;42155;53.096;23.226;2023-05-19T11:03:55;3.00;;;1.20;;
56242;SDS011;42155;53.096;23.226;2023-05-19T11:06:29;4.97;;;1.40;;
56242;SDS011;42155;53.096;23.226;2023-05-19T11:08:31;3.70;;;1.17;;
56242;SDS011;42155;53.096;23.226;2023-05-19T11:10:33;3.47;;;1.50;;
56242;SDS011;42155;53.096;23.226;2023-05-19T11:12:39;6.30;;;1.60;;
56242;SDS011;42155;53.096;23.226;2023-05-19T11:14:41;3.05;;;1.20;;
56242;SDS011;42155;53.096;23.226;2023-05-19T11:16:41;3.67;;;1.25;;
56242;SDS011;42155;53.096;23.226;2023-05-19T11:18:49;2.53;;;1.40;;
56242;SDS011;42155;53.096;23.226;2023-05-19T11:20:55;3.40;;;1.30;;
56242;SDS011;42155;53.096;23.226;2023-05-19T11:25:02;5.22;;;1.40;;
56242;SDS011;42155;53.096;23.226;2023-05-19T11:29:30;3.45;;;1.70;;
56242;SDS011;42155;53.096;23.226;2023-05-19T11:31:30;2.50;;;1.40;;
56242;SDS011;42155;53.096;23.226;2023-05-19T11:33:31;4.20;;;1.25;;
56242;SDS011;42155;53.096;23.226;2023-05-19T11:35:32;5.95;;;1.60;;
56242;SDS011;42155;53.096;23.226;2023-05-19T11:37:32;4.50;;;1.70;;
56242;SDS011;42155;53.096;23.226;2023-05-19T11:39:33;4.63;;;1.38;;
56242;SDS011;42155;53.096;23.226;2023-05-19T11:41:37;2.85;;;1.33;;
56242;SDS011;42155;53.096;23.226;2023-05-19T11:43:38;4.80;;;1.40;;
56242;SDS011;42155;53.096;23.226;2023-05-19T11:45:38;7.00;;;1.73;;
56242;SDS011;42155;53.096;23.226;2023-05-19T11:47:38;4.07;;;1.30;;
56242;SDS011;42155;53.096;23.226;2023-05-19T11:49:57;3.78;;;1.60;;
56242;SDS011;42155;53.096;23.226;2023-05-19T11:51:58;3.65;;;1.30;;
56242;SDS011;42155;53.096;23.226;2023-05-19T11:54:01;3.60;;;1.20;;
56242;SDS011;42155;53.096;23.226;2023-05-19T11:56:02;4.25;;;1.58;;
56242;SDS011;42155;53.096;23.226;2023-05-19T11:58:03;3.95;;;1.35;;
56242;SDS011;42155;53.096;23.226;2023-05-19T12:00:03;4.13;;;1.20;;
56242;SDS011;42155;53.096;23.226;2023-05-19T12:04:17;5.43;;;1.35;;
56242;SDS011;42155;53.096;23.226;2023-05-19T12:06:18;6.35;;;1.40;;
56242;SDS011;42155;53.096;23.226;2023-05-19T12:08:18;2.60;;;1.33;;
56242;SDS011;42155;53.096;23.226;2023-05-19T12:12:26;3.40;;;1.40;;
56242;SDS011;42155;53.096;23.226;2023-05-19T12:14:28;2.80;;;1.40;;
56242;SDS011;42155;53.096;23.226;2023-05-19T12:16:33;3.42;;;1.40;;
56242;SDS011;42155;53.096;23.226;2023-05-19T12:18:36;2.13;;;1.35;;
56242;SDS011;42155;53.096;23.226;2023-05-19T12:20:37;1.92;;;1.30;;
56242;SDS011;42155;53.096;23.226;2023-05-19T12:22:38;4.55;;;1.20;;
56242;SDS011;42155;53.096;23.226;2023-05-19T12:24:38;6.35;;;1.52;;
56242;SDS011;42155;53.096;23.226;2023-05-19T12:26:39;6.18;;;1.60;;
56242;SDS011;42155;53.096;23.226;2023-05-19T12:28:40;4.72;;;1.38;;
56242;SDS011;42155;53.096;23.226;2023-05-19T12:30:41;3.20;;;1.27;;
56242;SDS011;42155;53.096;23.226;2023-05-19T12:32:47;4.63;;;1.35;;
56242;SDS011;42155;53.096;23.226;2023-05-19T12:34:47;3.13;;;1.10;;
56242;SDS011;42155;53.096;23.226;2023-05-19T12:36:48;2.35;;;1.10;;